EGPKEIDW

Guest
Details From EGPK - Prestwick
To EIDW - Dublin
Flight Number -
Tags generated
Created
Modified
Stats Distance 138 nm / 255 km
Max Altitude 14,000 ft / 4,267 m
Waypoints 3
Social Downloads 0
Likes 0
Share VATSIM

Download

Looking for another format? Having issues loading an existing format? Contact us
Advertisement - Login to hide

Notes

Basic altitude profile: - Ascent Rate: 2500ft/min - Ascent Speed: 250kts - Cruise Altitude: 35000ft - Cruise Speed: 420kts - Descent Rate: 1500ft/min - Descent Speed: 250kts

Route

EGPK BLACA EIDW

ID Type Via Altitude Latitude Longitude Leg Dist Tot Dist Heading (true) Name
O EGPK APT - 0 ft / 0 m 55.50230˚ -4.58836˚ - 0 nm - Prestwick
BLACA FIX - 14,000 ft / 4,267 m 54.88259˚ -5.16405˚ 42 nm 42 nm 208° / 208° -
O EIDW APT - 0 ft / 0 m 53.42826˚ -6.25955˚ 95 nm 137 nm 204° / 203° Dublin

Altitude Profile

Advertisement - Login to hide

EGPK

Details ICAO EGPK (PIK)
Name Prestwick
Region United Kingdom
Timezone Europe/London (UTC+1.0)
Stats Elevation 65 ft / 20 m (AMSL)
Location 55.502302° -4.588363°
Runways 2
Magnetic Variation 2.651° W

METAR

Not found

TAF

TAF EGPK 272257Z 2800/2824 06009KT 9999 FEW045= TAF LBBG 272300Z 2800/2824 34008KT 9999 SCT040 TEMPO 2802/2807 BKN015 BECMG 2807/2809 05015KT BECMG 2818/2820 34008KT

Decode

Departure Runways

ID Width Length Bearing (true) Bearing (mag) Surface Threshold Offset Overrun Length
03 148 ft / 45 m 6,534 ft / 1,992 m 23.69° 26.34° Asphalt 538 ft / 164 m 0 ft / 0 m
13 151 ft / 46 m 9,789 ft / 2,984 m 121.38° 124.03° Asphalt 817 ft / 249 m 0 ft / 0 m
21 148 ft / 45 m 6,534 ft / 1,992 m 203.71° 206.36° Asphalt 0 ft / 0 m 0 ft / 0 m
31 151 ft / 46 m 9,789 ft / 2,984 m 301.42° 304.07° Asphalt 0 ft / 0 m 0 ft / 0 m

EIDW

Details ICAO EIDW (DUB)
Name Dublin
Region Ireland
Timezone Europe/Dublin (UTC+1.0)
Stats Elevation 242 ft / 74 m (AMSL)
Location 53.428264° -6.259550°
Runways 3
Magnetic Variation 2.949° W

METAR

Not found

TAF

TAF EIDW 271700Z 2718/2818 07007KT 8000 FEW010 SCT040 BECMG 2718/2720 VRB03KT PROB30 TEMPO 2719/2721 5000 BR TEMPO 2721/2807 3000 BR BKN007 PROB30 TEMPO 2723/2807 0500 FG BKN001 BECMG 2804/2806 35005KT BECMG 2806/2809 02006KT PROB30 TEMPO 2807/2810 BKN010 BECMG 2809/2811 05007KT

Decode

Destination Runways

ID Width Length Bearing (true) Bearing (mag) Surface Threshold Offset Overrun Length
10 148 ft / 45 m 8,625 ft / 2,629 m 95.25° 98.20° Concrete 0 ft / 0 m 0 ft / 0 m
11 200 ft / 61 m 4,380 ft / 1,335 m 105.01° 107.96° Asphalt 279 ft / 85 m 0 ft / 0 m
16 200 ft / 61 m 6,791 ft / 2,070 m 156.64° 159.59° Asphalt 0 ft / 0 m 0 ft / 0 m
28 148 ft / 45 m 8,625 ft / 2,629 m 275.28° 278.23° Concrete 0 ft / 0 m 0 ft / 0 m
29 200 ft / 61 m 4,380 ft / 1,335 m 285.02° 287.97° Asphalt 0 ft / 0 m 0 ft / 0 m
34 200 ft / 61 m 6,791 ft / 2,070 m 336.65° 339.60° Asphalt 0 ft / 0 m 0 ft / 0 m

Approach Navaids

Runway Type Ident Frequency Range Bearing (true) Bearing (mag) Slope Elevation
10 Localiser IDE 108.90 MHz 18 nm / 33 km 95.29° 98.24° - 242 ft / 74 m (AMSL)
10 Glidescope IDE 108.90 MHz 10 nm / 19 km 95.27° 98.22° 3.00° 242 ft / 74 m (AMSL)
10 DME IDE 108.90 MHz 18 nm / 33 km - - - 200 ft / 61 m (AMSL)
16 Localiser IAC 111.50 MHz 18 nm / 33 km 156.65° 159.60° - 242 ft / 74 m (AMSL)
16 Glidescope IAC 111.50 MHz 10 nm / 19 km 156.64° 159.59° 3.00° 242 ft / 74 m (AMSL)
16 DME IAC 111.50 MHz 18 nm / 33 km - - - 200 ft / 61 m (AMSL)
28 Localiser IDW 111.35 MHz 18 nm / 33 km 275.25° 278.20° - 242 ft / 74 m (AMSL)
28 Glidescope IDW 111.35 MHz 10 nm / 19 km 275.27° 278.22° 3.00° 242 ft / 74 m (AMSL)
28 DME IDW 113.50 MHz 18 nm / 33 km - - - 200 ft / 61 m (AMSL)

Popular Alternatives